sensor_id;sensor_type;location;lat;lon;timestamp;pressure;altitude;pressure_sealevel;temperature;humidity
11114;BME280;5610;52.154;9.198;2023-07-31T00:02:10;100128.25;;;17.76;100.00
11114;BME280;5610;52.154;9.198;2023-07-31T00:04:55;100123.44;;;17.79;100.00
11114;BME280;5610;52.154;9.198;2023-07-31T00:07:40;100119.06;;;17.51;100.00
11114;BME280;5610;52.154;9.198;2023-07-31T00:10:26;100114.97;;;17.47;100.00
11114;BME280;5610;52.154;9.198;2023-07-31T00:13:11;100104.19;;;17.47;100.00
11114;BME280;5610;52.154;9.198;2023-07-31T00:15:56;100103.81;;;17.42;100.00
11114;BME280;5610;52.154;9.198;2023-07-31T00:18:42;100091.41;;;17.31;100.00
11114;BME280;5610;52.154;9.198;2023-07-31T00:21:28;100089.31;;;17.25;100.00
11114;BME280;5610;52.154;9.198;2023-07-31T00:24:13;100094.19;;;17.12;100.00
11114;BME280;5610;52.154;9.198;2023-07-31T00:26:58;100087.84;;;17.13;100.00
11114;BME280;5610;52.154;9.198;2023-07-31T00:29:45;100080.00;;;16.92;100.00
11114;BME280;5610;52.154;9.198;2023-07-31T00:32:30;100084.81;;;16.88;100.00
11114;BME280;5610;52.154;9.198;2023-07-31T00:35:19;100090.53;;;16.85;100.00
11114;BME280;5610;52.154;9.198;2023-07-31T00:38:04;100076.22;;;16.85;100.00
11114;BME280;5610;52.154;9.198;2023-07-31T00:40:50;100076.34;;;16.83;100.00
11114;BME280;5610;52.154;9.198;2023-07-31T00:43:36;100075.13;;;16.78;100.00
11114;BME280;5610;52.154;9.198;2023-07-31T00:46:21;100067.28;;;16.84;100.00
11114;BME280;5610;52.154;9.198;2023-07-31T00:49:07;100064.75;;;16.83;100.00
11114;BME280;5610;52.154;9.198;2023-07-31T00:51:54;100065.31;;;16.77;100.00
11114;BME280;5610;52.154;9.198;2023-07-31T00:54:43;100058.97;;;16.78;100.00
11114;BME280;5610;52.154;9.198;2023-07-31T00:57:29;100059.69;;;16.70;100.00
11114;BME280;5610;52.154;9.198;2023-07-31T01:00:15;100059.56;;;16.71;100.00
11114;BME280;5610;52.154;9.198;2023-07-31T01:03:01;100057.28;;;16.67;100.00
11114;BME280;5610;52.154;9.198;2023-07-31T01:05:56;100053.59;;;16.68;100.00
11114;BME280;5610;52.154;9.198;2023-07-31T01:08:54;100041.97;;;16.67;100.00
11114;BME280;5610;52.154;9.198;2023-07-31T01:11:48;100038.88;;;16.72;100.00
11114;BME280;5610;52.154;9.198;2023-07-31T01:14:35;100041.00;;;16.78;100.00
11114;BME280;5610;52.154;9.198;2023-07-31T01:17:20;100039.16;;;16.79;100.00
11114;BME280;5610;52.154;9.198;2023-07-31T01:20:10;100041.84;;;16.79;100.00
11114;BME280;5610;52.154;9.198;2023-07-31T01:23:22;100047.59;;;16.84;100.00
11114;BME280;5610;52.154;9.198;2023-07-31T01:26:17;100037.41;;;16.87;100.00
11114;BME280;5610;52.154;9.198;2023-07-31T01:29:11;100045.88;;;16.92;100.00
11114;BME280;5610;52.154;9.198;2023-07-31T01:32:01;100030.09;;;16.97;100.00
11114;BME280;5610;52.154;9.198;2023-07-31T01:34:47;100032.09;;;16.95;100.00
11114;BME280;5610;52.154;9.198;2023-07-31T01:37:33;100018.81;;;16.94;100.00
11114;BME280;5610;52.154;9.198;2023-07-31T01:40:19;100029.00;;;16.90;100.00
11114;BME280;5610;52.154;9.198;2023-07-31T01:43:06;100025.19;;;16.93;100.00
11114;BME280;5610;52.154;9.198;2023-07-31T01:45:51;100022.28;;;17.04;100.00
11114;BME280;5610;52.154;9.198;2023-07-31T01:48:36;100022.34;;;17.12;100.00
11114;BME280;5610;52.154;9.198;2023-07-31T01:51:21;100009.38;;;17.08;100.00
11114;BME280;5610;52.154;9.198;2023-07-31T01:54:06;100015.19;;;17.03;100.00
11114;BME280;5610;52.154;9.198;2023-07-31T01:56:51;100006.13;;;17.04;100.00
11114;BME280;5610;52.154;9.198;2023-07-31T01:59:38;100007.13;;;17.03;100.00
11114;BME280;5610;52.154;9.198;2023-07-31T02:02:23;100010.47;;;17.15;100.00
11114;BME280;5610;52.154;9.198;2023-07-31T02:05:09;100007.78;;;17.15;100.00
11114;BME280;5610;52.154;9.198;2023-07-31T02:07:55;100007.59;;;17.16;100.00
11114;BME280;5610;52.154;9.198;2023-07-31T02:10:44;99999.28;;;17.10;100.00
11114;BME280;5610;52.154;9.198;2023-07-31T02:13:29;99996.75;;;17.08;100.00
11114;BME280;5610;52.154;9.198;2023-07-31T02:16:16;99990.06;;;17.12;100.00
11114;BME280;5610;52.154;9.198;2023-07-31T02:19:01;99981.84;;;17.14;100.00
11114;BME280;5610;52.154;9.198;2023-07-31T02:21:46;99985.91;;;17.18;100.00
11114;BME280;5610;52.154;9.198;2023-07-31T02:24:32;99981.00;;;17.13;100.00
11114;BME280;5610;52.154;9.198;2023-07-31T02:27:17;99985.38;;;17.14;100.00
11114;BME280;5610;52.154;9.198;2023-07-31T02:30:03;99985.00;;;17.09;100.00
11114;BME280;5610;52.154;9.198;2023-07-31T02:32:50;99985.84;;;17.10;100.00
11114;BME280;5610;52.154;9.198;2023-07-31T02:35:35;99978.69;;;17.00;100.00
11114;BME280;5610;52.154;9.198;2023-07-31T02:38:20;99983.59;;;17.05;100.00
11114;BME280;5610;52.154;9.198;2023-07-31T02:41:06;99984.84;;;17.11;100.00
11114;BME280;5610;52.154;9.198;2023-07-31T02:43:51;99974.31;;;16.99;100.00
11114;BME280;5610;52.154;9.198;2023-07-31T02:46:38;99987.59;;;17.01;100.00
11114;BME280;5610;52.154;9.198;2023-07-31T02:49:24;99989.25;;;16.84;100.00
11114;BME280;5610;52.154;9.198;2023-07-31T02:52:10;99983.53;;;16.69;100.00
11114;BME280;5610;52.154;9.198;2023-07-31T02:54:54;99973.47;;;16.71;100.00
11114;BME280;5610;52.154;9.198;2023-07-31T02:57:40;99981.81;;;16.68;100.00
11114;BME280;5610;52.154;9.198;2023-07-31T03:00:25;99980.84;;;16.60;100.00
11114;BME280;5610;52.154;9.198;2023-07-31T03:03:10;99990.69;;;16.51;100.00
11114;BME280;5610;52.154;9.198;2023-07-31T03:05:57;99979.75;;;16.53;100.00
11114;BME280;5610;52.154;9.198;2023-07-31T03:08:42;99976.63;;;16.57;100.00
11114;BME280;5610;52.154;9.198;2023-07-31T03:11:27;99979.00;;;16.60;100.00
11114;BME280;5610;52.154;9.198;2023-07-31T03:14:13;99988.50;;;16.64;100.00
11114;BME280;5610;52.154;9.198;2023-07-31T03:16:59;99978.16;;;16.69;100.00
11114;BME280;5610;52.154;9.198;2023-07-31T03:19:44;99974.84;;;16.75;100.00
11114;BME280;5610;52.154;9.198;2023-07-31T03:22:31;99980.03;;;16.87;100.00
11114;BME280;5610;52.154;9.198;2023-07-31T03:25:16;99975.78;;;16.84;100.00
11114;BME280;5610;52.154;9.198;2023-07-31T03:28:02;99978.19;;;16.87;100.00
11114;BME280;5610;52.154;9.198;2023-07-31T03:30:47;99979.28;;;16.94;100.00
11114;BME280;5610;52.154;9.198;2023-07-31T03:33:33;99974.81;;;16.85;100.00
11114;BME280;5610;52.154;9.198;2023-07-31T03:36:18;99979.34;;;16.85;100.00
11114;BME280;5610;52.154;9.198;2023-07-31T03:39:04;99974.19;;;16.91;100.00
11114;BME280;5610;52.154;9.198;2023-07-31T03:41:50;99977.63;;;16.84;100.00
11114;BME280;5610;52.154;9.198;2023-07-31T03:44:35;99973.97;;;16.85;100.00
11114;BME280;5610;52.154;9.198;2023-07-31T03:47:22;99974.34;;;16.90;100.00
11114;BME280;5610;52.154;9.198;2023-07-31T03:50:07;99971.06;;;16.96;100.00
11114;BME280;5610;52.154;9.198;2023-07-31T03:52:52;99970.59;;;17.00;100.00
11114;BME280;5610;52.154;9.198;2023-07-31T03:55:39;99971.13;;;17.04;100.00
11114;BME280;5610;52.154;9.198;2023-07-31T03:58:24;99968.59;;;17.02;100.00
11114;BME280;5610;52.154;9.198;2023-07-31T04:01:10;99968.97;;;16.90;100.00
11114;BME280;5610;52.154;9.198;2023-07-31T04:03:55;99959.03;;;16.90;100.00
11114;BME280;5610;52.154;9.198;2023-07-31T04:06:40;99964.44;;;16.90;100.00
11114;BME280;5610;52.154;9.198;2023-07-31T04:09:25;99958.28;;;16.80;100.00
11114;BME280;5610;52.154;9.198;2023-07-31T04:12:12;99952.19;;;16.78;100.00
11114;BME280;5610;52.154;9.198;2023-07-31T04:14:57;99950.59;;;16.85;100.00
11114;BME280;5610;52.154;9.198;2023-07-31T04:17:42;99952.78;;;16.99;100.00
11114;BME280;5610;52.154;9.198;2023-07-31T04:20:28;99943.09;;;17.07;100.00
11114;BME280;5610;52.154;9.198;2023-07-31T04:23:13;99954.44;;;17.18;100.00
11114;BME280;5610;52.154;9.198;2023-07-31T04:25:58;99948.47;;;17.24;100.00
11114;BME280;5610;52.154;9.198;2023-07-31T04:28:45;99945.59;;;17.26;100.00
11114;BME280;5610;52.154;9.198;2023-07-31T04:31:30;99938.25;;;17.28;100.00
11114;BME280;5610;52.154;9.198;2023-07-31T04:34:15;99936.56;;;17.27;100.00
11114;BME280;5610;52.154;9.198;2023-07-31T04:37:00;99943.75;;;17.26;100.00
11114;BME280;5610;52.154;9.198;2023-07-31T04:39:45;99928.31;;;17.28;100.00
11114;BME280;5610;52.154;9.198;2023-07-31T04:42:30;99933.00;;;17.26;100.00
11114;BME280;5610;52.154;9.198;2023-07-31T04:45:17;99940.44;;;17.33;100.00
11114;BME280;5610;52.154;9.198;2023-07-31T04:48:03;99941.16;;;17.35;100.00
11114;BME280;5610;52.154;9.198;2023-07-31T04:50:48;99939.78;;;17.48;100.00
11114;BME280;5610;52.154;9.198;2023-07-31T04:53:33;99943.13;;;17.50;100.00
11114;BME280;5610;52.154;9.198;2023-07-31T04:56:18;99944.16;;;17.49;100.00
11114;BME280;5610;52.154;9.198;2023-07-31T04:59:03;99939.66;;;17.40;100.00
11114;BME280;5610;52.154;9.198;2023-07-31T05:01:50;99948.13;;;17.45;100.00
11114;BME280;5610;52.154;9.198;2023-07-31T05:04:35;99949.91;;;17.37;100.00
11114;BME280;5610;52.154;9.198;2023-07-31T05:07:20;99947.97;;;17.47;100.00
11114;BME280;5610;52.154;9.198;2023-07-31T05:10:06;99954.31;;;17.38;100.00
11114;BME280;5610;52.154;9.198;2023-07-31T05:12:51;99957.69;;;17.40;100.00
11114;BME280;5610;52.154;9.198;2023-07-31T05:15:36;99944.16;;;17.32;100.00
11114;BME280;5610;52.154;9.198;2023-07-31T05:18:23;99941.69;;;17.38;100.00
11114;BME280;5610;52.154;9.198;2023-07-31T05:21:08;99944.84;;;17.34;100.00
11114;BME280;5610;52.154;9.198;2023-07-31T05:23:53;99944.22;;;17.40;100.00
11114;BME280;5610;52.154;9.198;2023-07-31T05:26:38;99952.84;;;17.43;100.00
11114;BME280;5610;52.154;9.198;2023-07-31T05:29:23;99953.31;;;17.39;100.00
11114;BME280;5610;52.154;9.198;2023-07-31T05:32:09;99940.44;;;17.33;100.00
11114;BME280;5610;52.154;9.198;2023-07-31T05:34:55;99931.69;;;17.30;100.00
11114;BME280;5610;52.154;9.198;2023-07-31T05:37:40;99944.16;;;17.32;100.00
11114;BME280;5610;52.154;9.198;2023-07-31T05:40:26;99951.63;;;17.38;100.00
11114;BME280;5610;52.154;9.198;2023-07-31T05:43:11;99936.00;;;17.41;100.00
11114;BME280;5610;52.154;9.198;2023-07-31T05:45:56;99939.03;;;17.20;100.00
11114;BME280;5610;52.154;9.198;2023-07-31T05:48:41;99933.00;;;17.26;100.00
11114;BME280;5610;52.154;9.198;2023-07-31T05:51:28;99941.00;;;17.18;100.00
11114;BME280;5610;52.154;9.198;2023-07-31T05:54:13;99923.31;;;17.16;100.00
11114;BME280;5610;52.154;9.198;2023-07-31T05:56:58;99946.47;;;17.09;100.00
11114;BME280;5610;52.154;9.198;2023-07-31T05:59:43;99947.00;;;17.12;100.00
11114;BME280;5610;52.154;9.198;2023-07-31T06:02:28;99936.47;;;17.01;100.00
11114;BME280;5610;52.154;9.198;2023-07-31T06:05:16;99943.22;;;17.05;100.00
11114;BME280;5610;52.154;9.198;2023-07-31T06:08:03;99936.84;;;17.06;100.00
11114;BME280;5610;52.154;9.198;2023-07-31T06:10:48;99938.38;;;17.09;100.00
11114;BME280;5610;52.154;9.198;2023-07-31T06:13:34;99947.09;;;17.20;100.00
11114;BME280;5610;52.154;9.198;2023-07-31T06:16:19;99940.91;;;17.10;100.00
11114;BME280;5610;52.154;9.198;2023-07-31T06:19:05;99949.47;;;17.23;100.00
11114;BME280;5610;52.154;9.198;2023-07-31T06:21:50;99949.78;;;17.20;100.00
11114;BME280;5610;52.154;9.198;2023-07-31T06:24:37;99946.25;;;17.20;100.00
11114;BME280;5610;52.154;9.198;2023-07-31T06:27:22;99942.53;;;17.39;100.00
11114;BME280;5610;52.154;9.198;2023-07-31T06:30:08;99949.81;;;17.46;100.00
11114;BME280;5610;52.154;9.198;2023-07-31T06:32:53;99944.66;;;17.53;100.00
11114;BME280;5610;52.154;9.198;2023-07-31T06:35:39;99944.88;;;17.60;100.00
11114;BME280;5610;52.154;9.198;2023-07-31T06:38:25;99950.59;;;17.56;100.00
11114;BME280;5610;52.154;9.198;2023-07-31T06:41:12;99948.13;;;17.63;100.00
11114;BME280;5610;52.154;9.198;2023-07-31T06:43:57;99927.50;;;17.72;100.00
11114;BME280;5610;52.154;9.198;2023-07-31T06:46:43;99932.28;;;17.78;100.00
11114;BME280;5610;52.154;9.198;2023-07-31T06:49:28;99935.34;;;17.83;100.00
11114;BME280;5610;52.154;9.198;2023-07-31T06:52:13;99922.16;;;18.06;100.00
11114;BME280;5610;52.154;9.198;2023-07-31T06:55:03;99926.31;;;18.26;100.00
11114;BME280;5610;52.154;9.198;2023-07-31T06:57:53;99921.00;;;18.43;100.00
11114;BME280;5610;52.154;9.198;2023-07-31T07:00:38;99917.81;;;18.47;100.00
11114;BME280;5610;52.154;9.198;2023-07-31T07:03:23;99916.28;;;18.53;100.00
11114;BME280;5610;52.154;9.198;2023-07-31T07:06:09;99907.84;;;18.39;100.00
11114;BME280;5610;52.154;9.198;2023-07-31T07:08:54;99906.09;;;18.30;100.00
11114;BME280;5610;52.154;9.198;2023-07-31T07:11:39;99921.00;;;18.08;100.00
11114;BME280;5610;52.154;9.198;2023-07-31T07:14:25;99934.94;;;18.04;100.00
11114;BME280;5610;52.154;9.198;2023-07-31T07:17:11;99924.28;;;17.50;100.00
11114;BME280;5610;52.154;9.198;2023-07-31T07:19:56;99922.03;;;17.20;100.00
11114;BME280;5610;52.154;9.198;2023-07-31T07:22:42;99921.31;;;17.18;100.00
11114;BME280;5610;52.154;9.198;2023-07-31T07:25:27;99931.91;;;17.19;100.00
11114;BME280;5610;52.154;9.198;2023-07-31T07:28:13;99923.00;;;17.37;100.00
11114;BME280;5610;52.154;9.198;2023-07-31T07:30:59;99921.25;;;17.53;100.00
11114;BME280;5610;52.154;9.198;2023-07-31T07:33:45;99909.78;;;17.69;100.00
11114;BME280;5610;52.154;9.198;2023-07-31T07:36:30;99922.84;;;17.82;100.00
11114;BME280;5610;52.154;9.198;2023-07-31T07:39:16;99916.34;;;17.93;100.00
11114;BME280;5610;52.154;9.198;2023-07-31T07:42:01;99922.69;;;18.44;100.00
11114;BME280;5610;52.154;9.198;2023-07-31T07:44:47;99928.50;;;18.65;100.00
11114;BME280;5610;52.154;9.198;2023-07-31T07:47:34;99920.72;;;18.62;100.00
11114;BME280;5610;52.154;9.198;2023-07-31T07:50:19;99918.09;;;18.78;100.00
11114;BME280;5610;52.154;9.198;2023-07-31T07:53:05;99916.59;;;18.76;100.00
11114;BME280;5610;52.154;9.198;2023-07-31T07:55:50;99915.69;;;18.67;100.00
11114;BME280;5610;52.154;9.198;2023-07-31T07:58:35;99923.53;;;18.52;100.00
11114;BME280;5610;52.154;9.198;2023-07-31T08:01:20;99929.13;;;18.59;100.00
11114;BME280;5610;52.154;9.198;2023-07-31T08:04:07;99919.34;;;18.58;100.00
11114;BME280;5610;52.154;9.198;2023-07-31T08:06:52;99919.53;;;18.56;100.00
11114;BME280;5610;52.154;9.198;2023-07-31T08:09:37;99923.25;;;18.55;100.00
11114;BME280;5610;52.154;9.198;2023-07-31T08:12:22;99910.41;;;18.49;100.00
11114;BME280;5610;52.154;9.198;2023-07-31T08:15:08;99900.63;;;18.56;100.00
11114;BME280;5610;52.154;9.198;2023-07-31T08:17:53;99907.91;;;18.56;100.00
11114;BME280;5610;52.154;9.198;2023-07-31T08:20:39;99917.66;;;18.57;100.00
11114;BME280;5610;52.154;9.198;2023-07-31T08:23:25;99915.78;;;18.41;100.00
11114;BME280;5610;52.154;9.198;2023-07-31T08:26:14;99902.44;;;18.39;100.00
11114;BME280;5610;52.154;9.198;2023-07-31T08:28:59;99895.44;;;18.21;100.00
11114;BME280;5610;52.154;9.198;2023-07-31T08:31:45;99893.47;;;18.39;100.00
11114;BME280;5610;52.154;9.198;2023-07-31T08:34:30;99889.50;;;18.51;100.00
11114;BME280;5610;52.154;9.198;2023-07-31T08:37:16;99882.88;;;18.46;100.00
11114;BME280;5610;52.154;9.198;2023-07-31T08:40:02;99883.88;;;18.36;100.00
11114;BME280;5610;52.154;9.198;2023-07-31T08:42:49;99881.75;;;18.14;100.00
11114;BME280;5610;52.154;9.198;2023-07-31T08:45:35;99875.75;;;18.28;100.00
11114;BME280;5610;52.154;9.198;2023-07-31T08:48:21;99869.91;;;18.41;100.00
11114;BME280;5610;52.154;9.198;2023-07-31T08:51:07;99876.25;;;18.66;100.00
11114;BME280;5610;52.154;9.198;2023-07-31T08:53:54;99870.03;;;18.31;100.00
11114;BME280;5610;52.154;9.198;2023-07-31T08:56:39;99871.47;;;18.09;100.00
11114;BME280;5610;52.154;9.198;2023-07-31T08:59:26;99877.06;;;18.24;100.00
11114;BME280;5610;52.154;9.198;2023-07-31T09:02:15;99864.22;;;18.10;100.00
11114;BME280;5610;52.154;9.198;2023-07-31T09:05:02;99858.06;;;18.26;100.00
11114;BME280;5610;52.154;9.198;2023-07-31T09:07:49;99858.59;;;18.37;100.00
11114;BME280;5610;52.154;9.198;2023-07-31T09:10:40;99857.34;;;18.66;100.00
11114;BME280;5610;52.154;9.198;2023-07-31T09:13:27;99862.03;;;18.56;100.00
11114;BME280;5610;52.154;9.198;2023-07-31T09:16:13;99857.72;;;18.79;100.00
11114;BME280;5610;52.154;9.198;2023-07-31T09:18:58;99853.00;;;19.22;100.00
11114;BME280;5610;52.154;9.198;2023-07-31T09:21:47;99860.34;;;19.93;100.00
11114;BME280;5610;52.154;9.198;2023-07-31T09:24:34;99847.56;;;20.66;100.00
11114;BME280;5610;52.154;9.198;2023-07-31T09:27:21;99838.69;;;20.72;100.00
11114;BME280;5610;52.154;9.198;2023-07-31T09:30:07;99845.59;;;20.43;100.00
11114;BME280;5610;52.154;9.198;2023-07-31T09:33:00;99838.28;;;21.06;100.00
11114;BME280;5610;52.154;9.198;2023-07-31T09:35:46;99821.13;;;21.13;100.00
11114;BME280;5610;52.154;9.198;2023-07-31T09:38:32;99832.19;;;21.64;100.00
11114;BME280;5610;52.154;9.198;2023-07-31T09:41:17;99834.25;;;21.25;100.00
11114;BME280;5610;52.154;9.198;2023-07-31T09:44:04;99833.31;;;20.95;100.00
11114;BME280;5610;52.154;9.198;2023-07-31T09:46:49;99829.38;;;20.97;100.00
11114;BME280;5610;52.154;9.198;2023-07-31T09:49:34;99832.94;;;20.05;100.00
11114;BME280;5610;52.154;9.198;2023-07-31T09:52:19;99828.94;;;19.92;100.00
11114;BME280;5610;52.154;9.198;2023-07-31T09:55:05;99831.41;;;19.46;100.00
11114;BME280;5610;52.154;9.198;2023-07-31T09:57:50;99829.03;;;19.60;100.00
11114;BME280;5610;52.154;9.198;2023-07-31T10:00:37;99828.00;;;19.69;100.00
11114;BME280;5610;52.154;9.198;2023-07-31T10:03:22;99820.94;;;20.07;100.00
11114;BME280;5610;52.154;9.198;2023-07-31T10:06:09;99808.19;;;20.55;100.00
11114;BME280;5610;52.154;9.198;2023-07-31T10:08:55;99812.06;;;21.44;100.00
11114;BME280;5610;52.154;9.198;2023-07-31T10:11:47;99804.69;;;21.97;100.00
11114;BME280;5610;52.154;9.198;2023-07-31T10:14:35;99788.47;;;22.33;100.00
11114;BME280;5610;52.154;9.198;2023-07-31T10:17:22;99793.84;;;21.67;100.00
11114;BME280;5610;52.154;9.198;2023-07-31T10:20:09;99797.91;;;22.73;100.00
11114;BME280;5610;52.154;9.198;2023-07-31T10:22:55;99794.88;;;22.47;100.00
11114;BME280;5610;52.154;9.198;2023-07-31T10:25:42;99796.66;;;22.55;100.00
11114;BME280;5610;52.154;9.198;2023-07-31T10:28:29;99800.88;;;22.21;100.00
11114;BME280;5610;52.154;9.198;2023-07-31T10:31:15;99804.38;;;22.36;100.00
11114;BME280;5610;52.154;9.198;2023-07-31T10:34:02;99807.97;;;22.22;100.00
11114;BME280;5610;52.154;9.198;2023-07-31T10:36:48;99803.47;;;21.41;100.00
11114;BME280;5610;52.154;9.198;2023-07-31T10:39:35;99802.94;;;21.22;100.00
11114;BME280;5610;52.154;9.198;2023-07-31T10:42:27;99791.13;;;20.77;100.00
11114;BME280;5610;52.154;9.198;2023-07-31T10:45:13;99806.19;;;20.18;100.00
11114;BME280;5610;52.154;9.198;2023-07-31T10:48:00;99788.59;;;20.76;100.00
11114;BME280;5610;52.154;9.198;2023-07-31T10:50:49;99790.47;;;20.75;100.00
11114;BME280;5610;52.154;9.198;2023-07-31T10:53:34;99788.50;;;20.38;100.00
11114;BME280;5610;52.154;9.198;2023-07-31T10:56:19;99776.47;;;19.70;100.00
11114;BME280;5610;52.154;9.198;2023-07-31T10:59:06;99787.78;;;19.74;100.00
11114;BME280;5610;52.154;9.198;2023-07-31T11:01:53;99785.00;;;19.90;100.00
11114;BME280;5610;52.154;9.198;2023-07-31T11:04:41;99785.63;;;20.00;100.00
11114;BME280;5610;52.154;9.198;2023-07-31T11:07:46;99789.16;;;19.70;100.00
11114;BME280;5610;52.154;9.198;2023-07-31T11:10:31;99779.72;;;19.49;100.00
11114;BME280;5610;52.154;9.198;2023-07-31T11:13:16;99779.72;;;19.49;100.00
11114;BME280;5610;52.154;9.198;2023-07-31T11:16:02;99777.88;;;19.97;100.00
11114;BME280;5610;52.154;9.198;2023-07-31T11:18:48;99780.94;;;20.56;100.00
11114;BME280;5610;52.154;9.198;2023-07-31T11:21:35;99778.91;;;20.81;100.00
11114;BME280;5610;52.154;9.198;2023-07-31T11:24:23;99773.78;;;20.64;100.00
11114;BME280;5610;52.154;9.198;2023-07-31T11:27:08;99788.34;;;20.85;100.00
11114;BME280;5610;52.154;9.198;2023-07-31T11:30:00;99771.91;;;21.10;100.00
11114;BME280;5610;52.154;9.198;2023-07-31T11:32:45;99788.66;;;21.28;100.00
11114;BME280;5610;52.154;9.198;2023-07-31T11:35:31;99775.91;;;21.14;100.00
11114;BME280;5610;52.154;9.198;2023-07-31T11:38:24;99769.22;;;21.25;100.00
11114;BME280;5610;52.154;9.198;2023-07-31T11:41:14;99780.66;;;20.74;100.00
11114;BME280;5610;52.154;9.198;2023-07-31T11:44:00;99787.44;;;20.47;100.00
11114;BME280;5610;52.154;9.198;2023-07-31T11:46:45;99765.66;;;20.64;100.00
11114;BME280;5610;52.154;9.198;2023-07-31T11:49:31;99767.84;;;20.45;100.00
11114;BME280;5610;52.154;9.198;2023-07-31T11:52:17;99779.97;;;20.18;100.00
11114;BME280;5610;52.154;9.198;2023-07-31T11:55:05;99777.09;;;20.20;100.00
11114;BME280;5610;52.154;9.198;2023-07-31T11:57:56;99777.19;;;20.03;100.00
11114;BME280;5610;52.154;9.198;2023-07-31T12:00:42;99771.63;;;19.97;100.00
11114;BME280;5610;52.154;9.198;2023-07-31T12:03:27;99762.56;;;19.90;100.00
11114;BME280;5610;52.154;9.198;2023-07-31T12:06:13;99773.41;;;19.82;100.00
11114;BME280;5610;52.154;9.198;2023-07-31T12:09:01;99778.63;;;19.83;100.00
11114;BME280;5610;52.154;9.198;2023-07-31T12:11:47;99777.03;;;19.41;100.00
11114;BME280;5610;52.154;9.198;2023-07-31T12:14:34;99779.38;;;19.44;100.00
11114;BME280;5610;52.154;9.198;2023-07-31T12:17:19;99758.28;;;19.48;100.00
11114;BME280;5610;52.154;9.198;2023-07-31T12:20:06;99769.75;;;19.66;100.00
11114;BME280;5610;52.154;9.198;2023-07-31T12:22:52;99763.91;;;19.86;100.00
11114;BME280;5610;52.154;9.198;2023-07-31T12:25:37;99761.19;;;19.86;100.00
11114;BME280;5610;52.154;9.198;2023-07-31T12:28:22;99767.84;;;19.75;100.00
11114;BME280;5610;52.154;9.198;2023-07-31T12:31:10;99754.94;;;19.85;100.00
11114;BME280;5610;52.154;9.198;2023-07-31T12:33:55;99737.50;;;19.96;100.00
11114;BME280;5610;52.154;9.198;2023-07-31T12:36:42;99742.31;;;20.40;100.00
11114;BME280;5610;52.154;9.198;2023-07-31T12:39:27;99736.09;;;20.62;100.00
11114;BME280;5610;52.154;9.198;2023-07-31T12:42:12;99738.44;;;20.65;100.00
11114;BME280;5610;52.154;9.198;2023-07-31T12:44:58;99731.19;;;21.18;100.00
11114;BME280;5610;52.154;9.198;2023-07-31T12:47:46;99736.59;;;21.18;100.00
11114;BME280;5610;52.154;9.198;2023-07-31T12:50:32;99737.59;;;21.40;100.00
11114;BME280;5610;52.154;9.198;2023-07-31T12:53:20;99743.94;;;21.47;100.00
11114;BME280;5610;52.154;9.198;2023-07-31T12:56:06;99744.88;;;21.39;100.00
11114;BME280;5610;52.154;9.198;2023-07-31T12:58:51;99736.97;;;21.15;100.00
11114;BME280;5610;52.154;9.198;2023-07-31T13:01:36;99741.97;;;21.41;100.00
11114;BME280;5610;52.154;9.198;2023-07-31T13:04:23;99731.47;;;21.82;100.00
11114;BME280;5610;52.154;9.198;2023-07-31T13:07:08;99730.19;;;21.34;100.00
11114;BME280;5610;52.154;9.198;2023-07-31T13:09:53;99737.44;;;21.19;100.00
11114;BME280;5610;52.154;9.198;2023-07-31T13:12:38;99739.94;;;20.68;100.00
11114;BME280;5610;52.154;9.198;2023-07-31T13:15:24;99727.19;;;20.53;100.00
11114;BME280;5610;52.154;9.198;2023-07-31T13:18:09;99732.72;;;20.60;100.00
11114;BME280;5610;52.154;9.198;2023-07-31T13:20:56;99741.69;;;20.29;100.00
11114;BME280;5610;52.154;9.198;2023-07-31T13:23:41;99742.31;;;20.17;100.00
11114;BME280;5610;52.154;9.198;2023-07-31T13:26:26;99743.03;;;20.34;100.00
11114;BME280;5610;52.154;9.198;2023-07-31T13:29:11;99737.41;;;20.66;100.00
11114;BME280;5610;52.154;9.198;2023-07-31T13:31:56;99735.81;;;20.72;100.00
11114;BME280;5610;52.154;9.198;2023-07-31T13:34:42;99758.97;;;20.97;100.00
11114;BME280;5610;52.154;9.198;2023-07-31T13:37:29;99737.41;;;20.66;100.00
11114;BME280;5610;52.154;9.198;2023-07-31T13:40:14;99763.53;;;20.59;100.00
11114;BME280;5610;52.154;9.198;2023-07-31T13:42:59;99743.16;;;20.40;100.00
11114;BME280;5610;52.154;9.198;2023-07-31T13:45:44;99726.84;;;20.94;100.00
11114;BME280;5610;52.154;9.198;2023-07-31T13:48:30;99723.31;;;20.94;100.00
11114;BME280;5610;52.154;9.198;2023-07-31T13:51:15;99715.53;;;21.43;100.00
11114;BME280;5610;52.154;9.198;2023-07-31T13:54:01;99709.09;;;21.59;100.00
11114;BME280;5610;52.154;9.198;2023-07-31T13:56:46;99715.31;;;22.25;100.00
11114;BME280;5610;52.154;9.198;2023-07-31T13:59:31;99709.66;;;22.20;100.00
11114;BME280;5610;52.154;9.198;2023-07-31T14:02:16;99707.78;;;22.63;100.00
11114;BME280;5610;52.154;9.198;2023-07-31T14:05:02;99692.25;;;22.79;100.00
11114;BME280;5610;52.154;9.198;2023-07-31T14:07:47;99701.44;;;22.78;100.00
11114;BME280;5610;52.154;9.198;2023-07-31T14:10:34;99694.22;;;22.63;100.00
11114;BME280;5610;52.154;9.198;2023-07-31T14:13:19;99692.25;;;22.79;100.00
11114;BME280;5610;52.154;9.198;2023-07-31T14:16:04;99675.53;;;22.32;100.00
11114;BME280;5610;52.154;9.198;2023-07-31T14:18:49;99680.34;;;22.80;100.00
11114;BME280;5610;52.154;9.198;2023-07-31T14:21:35;99676.50;;;22.25;100.00
11114;BME280;5610;52.154;9.198;2023-07-31T14:24:20;99671.06;;;22.46;100.00
11114;BME280;5610;52.154;9.198;2023-07-31T14:27:07;99672.69;;;22.04;100.00
11114;BME280;5610;52.154;9.198;2023-07-31T14:29:52;99675.38;;;22.19;100.00
11114;BME280;5610;52.154;9.198;2023-07-31T14:32:37;99665.72;;;21.95;100.00
11114;BME280;5610;52.154;9.198;2023-07-31T14:35:22;99665.78;;;22.02;100.00
11114;BME280;5610;52.154;9.198;2023-07-31T14:38:08;99662.78;;;21.75;100.00